createdAt,value
2023-11-15T00:00:26.653Z,86.30
2023-11-15T00:02:53.988Z,86.18
2023-11-15T00:05:21.784Z,86.19
2023-11-15T00:07:48.766Z,86.32
2023-11-15T00:10:15.841Z,85.85
2023-11-15T00:12:44.326Z,85.64
2023-11-15T00:15:11.352Z,85.70
2023-11-15T00:17:38.417Z,85.97
2023-11-15T00:20:06.310Z,85.89
2023-11-15T00:22:33.339Z,86.24
2023-11-15T00:25:00.584Z,86.19
2023-11-15T00:27:30.929Z,86.04
2023-11-15T00:29:57.980Z,85.93
2023-11-15T00:32:25.004Z,86.14
2023-11-15T00:34:51.970Z,85.93
2023-11-15T00:37:18.951Z,86.28
2023-11-15T00:39:45.898Z,85.98
2023-11-15T00:42:13.032Z,85.98
2023-11-15T00:44:40.297Z,85.87
2023-11-15T00:47:07.226Z,86.02
2023-11-15T00:49:34.480Z,85.92
2023-11-15T00:52:01.545Z,86.20
2023-11-15T00:54:28.695Z,86.24
2023-11-15T00:56:59.153Z,86.30
2023-11-15T00:59:37.776Z,85.84
2023-11-15T01:02:06.482Z,86.07
2023-11-15T01:04:34.019Z,86.18
2023-11-15T01:07:01.369Z,86.06
2023-11-15T01:09:28.982Z,86.10
2023-11-15T01:11:56.455Z,86.45
2023-11-15T01:14:23.713Z,86.01
2023-11-15T01:16:50.860Z,86.19
2023-11-15T01:19:17.855Z,86.11
2023-11-15T01:21:44.942Z,85.93
2023-11-15T01:24:12.020Z,86.12
2023-11-15T01:26:39.033Z,85.84
2023-11-15T01:29:06.022Z,86.29
2023-11-15T01:31:33.009Z,86.07
2023-11-15T01:34:00.150Z,86.04
2023-11-15T01:36:29.018Z,86.00
2023-11-15T01:38:56.226Z,86.38
2023-11-15T01:41:25.148Z,86.26
2023-11-15T01:43:52.378Z,86.21
2023-11-15T01:46:19.605Z,86.33
2023-11-15T01:48:48.400Z,86.17
2023-11-15T01:51:15.704Z,86.38
2023-11-15T01:53:43.237Z,86.42
2023-11-15T01:56:10.368Z,86.23
2023-11-15T01:58:37.656Z,86.29
2023-11-15T02:01:06.693Z,86.59
2023-11-15T02:03:34.092Z,86.55
2023-11-15T02:06:01.242Z,86.25
2023-11-15T02:08:28.788Z,86.28
2023-11-15T02:10:55.879Z,86.21
2023-11-15T02:13:26.339Z,86.35
2023-11-15T02:15:53.923Z,86.37
2023-11-15T02:18:23.280Z,86.42
2023-11-15T02:20:51.181Z,86.39
2023-11-15T02:23:23.939Z,86.38
2023-11-15T02:25:54.709Z,86.62
2023-11-15T02:28:22.049Z,86.53
2023-11-15T02:30:49.097Z,86.50
2023-11-15T02:33:16.446Z,86.18
2023-11-15T02:35:43.675Z,86.43
2023-11-15T02:38:11.144Z,86.61
2023-11-15T02:40:39.749Z,86.76
2023-11-15T02:43:11.653Z,86.34
2023-11-15T02:45:38.578Z,86.25
2023-11-15T02:48:06.015Z,86.23
2023-11-15T02:50:33.117Z,86.32
2023-11-15T02:53:00.451Z,86.23
2023-11-15T02:55:27.438Z,86.55
2023-11-15T02:57:54.344Z,86.61
2023-11-15T03:00:21.497Z,86.18
2023-11-15T03:02:50.598Z,86.44
2023-11-15T03:05:18.311Z,86.33
2023-11-15T03:07:45.705Z,86.62
2023-11-15T03:10:12.822Z,86.12
2023-11-15T03:12:39.840Z,86.41
2023-11-15T03:15:07.493Z,86.14
2023-11-15T03:17:34.802Z,86.43
2023-11-15T03:20:01.836Z,86.54
2023-11-15T03:22:28.696Z,86.55
2023-11-15T03:24:55.696Z,86.56
2023-11-15T03:27:22.634Z,86.16
2023-11-15T03:29:49.946Z,86.11
2023-11-15T03:32:17.001Z,86.23
2023-11-15T03:34:44.574Z,86.35
2023-11-15T03:37:12.086Z,86.35
2023-11-15T03:39:39.148Z,86.36
2023-11-15T03:42:06.856Z,86.54
2023-11-15T03:44:34.158Z,86.74
2023-11-15T03:47:01.023Z,86.81
2023-11-15T03:49:28.468Z,86.63
2023-11-15T03:51:55.504Z,86.62
2023-11-15T03:54:22.390Z,86.45
2023-11-15T03:56:49.544Z,86.39
2023-11-15T03:59:16.509Z,86.33
2023-11-15T04:01:52.396Z,86.49
2023-11-15T04:04:24.989Z,86.37
2023-11-15T04:06:52.605Z,86.13
2023-11-15T04:09:19.553Z,86.36
2023-11-15T04:11:46.434Z,86.30
2023-11-15T04:14:13.640Z,86.33
2023-11-15T04:16:40.546Z,86.72
2023-11-15T04:19:07.533Z,86.98
2023-11-15T04:21:34.375Z,86.58
2023-11-15T04:24:01.388Z,86.85
2023-11-15T04:26:28.360Z,87.04
2023-11-15T04:28:55.229Z,86.95
2023-11-15T04:31:23.793Z,87.10
2023-11-15T04:33:52.254Z,86.57
2023-11-15T04:36:21.118Z,86.74
2023-11-15T04:38:51.218Z,86.75
2023-11-15T04:41:18.259Z,87.11
2023-11-15T04:43:45.265Z,86.61
2023-11-15T04:46:12.532Z,86.87
2023-11-15T04:48:40.906Z,86.73
2023-11-15T04:51:07.933Z,86.67
2023-11-15T04:53:34.938Z,86.75
2023-11-15T04:56:03.563Z,86.79
2023-11-15T04:58:31.419Z,87.11
2023-11-15T05:00:58.624Z,86.88
2023-11-15T05:03:26.864Z,86.40
2023-11-15T05:05:54.147Z,86.87
2023-11-15T05:08:21.225Z,86.69
2023-11-15T05:10:48.242Z,86.61
2023-11-15T05:13:15.107Z,87.03
2023-11-15T05:15:42.280Z,86.71
2023-11-15T05:18:09.443Z,86.90
2023-11-15T05:20:36.978Z,86.67
2023-11-15T05:23:04.280Z,86.63
2023-11-15T05:25:31.433Z,86.65
2023-11-15T05:27:58.521Z,86.48
2023-11-15T05:30:25.379Z,86.77
2023-11-15T05:32:52.571Z,86.92
2023-11-15T05:35:19.475Z,86.51
2023-11-15T05:37:47.004Z,86.85
2023-11-15T05:40:14.395Z,86.49
2023-11-15T05:42:41.404Z,86.35
2023-11-15T05:45:11.174Z,87.07
2023-11-15T05:47:41.816Z,86.93
2023-11-15T05:50:12.749Z,86.44
2023-11-15T05:52:39.894Z,87.04
2023-11-15T05:55:08.041Z,86.86
2023-11-15T05:57:35.315Z,86.52
2023-11-15T06:00:06.691Z,86.83
2023-11-15T06:02:39.199Z,86.67
2023-11-15T06:05:07.039Z,86.84
2023-11-15T06:07:34.543Z,86.38
2023-11-15T06:10:01.560Z,86.76
2023-11-15T06:12:29.817Z,86.69
2023-11-15T06:14:56.687Z,86.57
2023-11-15T06:17:26.576Z,86.73
2023-11-15T06:19:58.534Z,86.70
2023-11-15T06:22:31.896Z,86.74
2023-11-15T06:24:58.861Z,86.33
2023-11-15T06:27:25.710Z,86.50
2023-11-15T06:29:53.336Z,86.40
2023-11-15T06:32:20.314Z,86.05
2023-11-15T06:34:47.888Z,86.42
2023-11-15T06:37:15.067Z,86.20
2023-11-15T06:39:45.277Z,86.25
2023-11-15T06:42:13.754Z,86.58
2023-11-15T06:44:41.398Z,86.40
2023-11-15T06:47:10.234Z,86.59
2023-11-15T06:49:37.822Z,86.12
2023-11-15T06:52:07.110Z,86.63
2023-11-15T06:54:34.303Z,86.13
2023-11-15T06:57:01.397Z,86.31
2023-11-15T06:59:28.676Z,86.80
2023-11-15T07:01:56.292Z,86.48
2023-11-15T07:04:23.679Z,86.33
2023-11-15T07:06:50.678Z,86.75
2023-11-15T07:09:19.173Z,86.02
2023-11-15T07:11:48.157Z,86.50
2023-11-15T07:14:19.254Z,86.78
2023-11-15T07:16:53.821Z,86.16
2023-11-15T07:19:20.820Z,86.75
2023-11-15T07:21:47.719Z,86.61
2023-11-15T07:24:14.899Z,86.38
2023-11-15T07:26:42.843Z,86.14
2023-11-15T07:29:09.714Z,86.32
2023-11-15T07:31:37.100Z,86.05
2023-11-15T07:36:59.512Z,86.57
2023-11-15T07:39:27.306Z,86.67
2023-11-15T07:42:01.870Z,86.45
2023-11-15T07:44:31.676Z,86.32
2023-11-15T07:47:00.544Z,86.11
2023-11-15T07:49:30.035Z,86.51
2023-11-15T07:51:57.165Z,86.65
2023-11-15T07:54:24.593Z,86.54
2023-11-15T07:56:51.728Z,86.35
2023-11-15T07:59:22.733Z,86.67
2023-11-15T08:01:50.144Z,86.24
2023-11-15T08:04:17.596Z,86.05
2023-11-15T08:06:44.962Z,86.41
2023-11-15T08:09:26.210Z,86.87
2023-11-15T08:11:56.047Z,86.67
2023-11-15T08:14:23.155Z,87.03
2023-11-15T08:16:50.494Z,86.36
2023-11-15T08:19:18.370Z,86.70
2023-11-15T08:21:45.736Z,86.66
2023-11-15T08:24:19.193Z,86.50
2023-11-15T08:26:46.232Z,86.30
2023-11-15T08:29:13.145Z,86.41
2023-11-15T08:31:40.227Z,86.63
2023-11-15T08:34:07.316Z,86.47
2023-11-15T08:36:34.328Z,86.95
2023-11-15T08:39:01.757Z,86.43
2023-11-15T08:41:28.834Z,86.10
2023-11-15T08:43:55.864Z,86.43
2023-11-15T08:46:27.669Z,86.94
2023-11-15T08:48:54.847Z,86.57
2023-11-15T08:51:22.291Z,86.48
2023-11-15T08:53:49.218Z,86.68
2023-11-15T08:56:16.379Z,86.40
2023-11-15T08:58:44.064Z,86.55
2023-11-15T09:01:11.450Z,86.20
2023-11-15T09:03:42.438Z,86.37
2023-11-15T09:06:13.008Z,86.29
2023-11-15T09:08:39.970Z,86.24
2023-11-15T09:11:07.177Z,85.79
2023-11-15T09:13:34.465Z,86.39
2023-11-15T09:16:02.961Z,86.27
2023-11-15T09:18:30.739Z,86.13
2023-11-15T09:20:59.614Z,86.21
2023-11-15T09:23:30.663Z,86.05
2023-11-15T09:26:01.458Z,86.36
2023-11-15T09:28:28.711Z,86.15
2023-11-15T09:30:56.158Z,85.89
2023-11-15T09:33:23.212Z,86.36
2023-11-15T09:35:55.264Z,86.27
2023-11-15T09:38:28.580Z,85.87
2023-11-15T09:40:55.438Z,85.85
2023-11-15T09:43:22.609Z,85.92
2023-11-15T09:45:49.762Z,86.12
2023-11-15T09:48:17.085Z,86.22
2023-11-15T09:50:50.173Z,85.54
2023-11-15T09:53:19.914Z,85.46
2023-11-15T09:55:48.720Z,85.58
2023-11-15T09:58:15.785Z,85.67
2023-11-15T10:00:42.870Z,85.45
2023-11-15T10:03:10.154Z,85.73
2023-11-15T10:05:40.824Z,85.65
2023-11-15T10:08:16.728Z,85.70
2023-11-15T10:10:46.191Z,85.72
2023-11-15T10:13:18.143Z,85.70
2023-11-15T10:15:46.785Z,85.56
2023-11-15T10:18:29.777Z,85.41
2023-11-15T10:21:19.154Z,85.69
2023-11-15T10:23:47.500Z,85.34
2023-11-15T10:26:14.471Z,85.28
2023-11-15T10:28:41.521Z,85.16
2023-11-15T10:31:14.918Z,84.88
2023-11-15T10:33:47.353Z,85.09
2023-11-15T10:36:17.786Z,85.27
2023-11-15T10:38:47.316Z,85.24
2023-11-15T10:41:20.566Z,84.70
2023-11-15T10:43:51.989Z,84.71
2023-11-15T10:46:25.991Z,84.91
2023-11-15T10:48:54.002Z,84.50
2023-11-15T10:51:22.480Z,84.40
2023-11-15T10:53:50.020Z,84.79
2023-11-15T10:56:18.665Z,84.57
2023-11-15T10:58:49.055Z,84.52
2023-11-15T11:01:19.680Z,84.45
2023-11-15T11:03:50.719Z,84.21
2023-11-15T11:06:26.630Z,84.21
2023-11-15T11:09:11.373Z,84.71
2023-11-15T11:11:43.836Z,84.13
2023-11-15T11:14:19.871Z,84.53
2023-11-15T11:16:47.466Z,84.29
2023-11-15T11:19:20.873Z,84.16
2023-11-15T11:22:09.519Z,83.76
2023-11-15T11:24:47.214Z,84.26
2023-11-15T11:27:31.045Z,83.79
2023-11-15T11:30:17.207Z,83.42
2023-11-15T11:32:48.418Z,83.65
2023-11-15T11:35:32.145Z,83.60
2023-11-15T11:38:01.245Z,83.44
2023-11-15T11:40:33.515Z,83.32
2023-11-15T11:43:18.184Z,83.26
2023-11-15T11:45:46.464Z,83.60
2023-11-15T11:48:18.372Z,82.72
2023-11-15T11:50:57.179Z,83.05
2023-11-15T11:53:24.169Z,82.91
2023-11-15T11:55:55.795Z,82.75
2023-11-15T11:58:24.318Z,82.25
2023-11-15T12:00:51.502Z,82.74
2023-11-15T12:03:19.133Z,82.39
2023-11-15T12:05:46.280Z,82.54
2023-11-15T12:08:15.727Z,82.20
2023-11-15T12:10:44.307Z,81.92
2023-11-15T12:13:12.248Z,81.81
2023-11-15T12:15:40.291Z,82.13
2023-11-15T12:18:08.441Z,82.02
2023-11-15T12:20:40.845Z,81.51
2023-11-15T12:23:16.276Z,81.40
2023-11-15T12:25:53.203Z,81.26
2023-11-15T12:28:27.777Z,81.71
2023-11-15T12:30:56.279Z,81.62
2023-11-15T12:33:24.729Z,81.08
2023-11-15T12:35:53.892Z,81.06
2023-11-15T12:38:21.188Z,80.86
2023-11-15T12:40:48.910Z,81.11
2023-11-15T12:43:22.712Z,80.76
2023-11-15T12:45:51.700Z,80.49
2023-11-15T12:48:19.166Z,80.72
2023-11-15T12:50:47.335Z,80.81
2023-11-15T12:53:16.279Z,80.66
2023-11-15T12:55:56.836Z,80.32
2023-11-15T12:58:45.302Z,80.41
2023-11-15T13:01:18.553Z,80.77
2023-11-15T13:03:46.681Z,80.85
2023-11-15T13:06:19.651Z,80.60
2023-11-15T13:08:51.762Z,80.49
2023-11-15T13:11:27.868Z,80.66
2023-11-15T13:13:55.329Z,80.55
2023-11-15T13:16:23.557Z,80.29
2023-11-15T13:18:51.260Z,80.51
2023-11-15T13:21:22.856Z,80.54
2023-11-15T13:23:54.202Z,80.21
2023-11-15T13:26:21.926Z,80.27
2023-11-15T13:28:50.278Z,80.12
2023-11-15T13:31:24.940Z,80.44
2023-11-15T13:33:54.426Z,79.74
2023-11-15T13:36:23.057Z,80.09
2023-11-15T13:38:50.479Z,79.85
2023-11-15T13:41:23.095Z,79.86
2023-11-15T13:43:51.494Z,80.19
2023-11-15T13:46:24.644Z,79.69
2023-11-15T13:48:54.282Z,80.04
2023-11-15T13:51:22.730Z,79.95
2023-11-15T13:53:50.335Z,79.60
2023-11-15T13:56:17.180Z,79.73
2023-11-15T13:58:44.098Z,79.38
2023-11-15T14:01:12.584Z,79.33
2023-11-15T14:03:39.958Z,79.52
2023-11-15T14:06:08.404Z,79.51
2023-11-15T14:08:47.565Z,79.74
2023-11-15T14:11:23.781Z,79.49
2023-11-15T14:13:56.612Z,79.43
2023-11-15T14:16:24.399Z,78.98
2023-11-15T14:18:51.700Z,79.18
2023-11-15T14:21:19.472Z,79.56
2023-11-15T14:23:47.528Z,79.01
2023-11-15T14:26:15.802Z,79.39
2023-11-15T14:28:44.836Z,78.95
2023-11-15T14:31:12.413Z,79.14
2023-11-15T14:33:40.140Z,78.72
2023-11-15T14:36:08.235Z,79.30
2023-11-15T14:38:35.205Z,79.06
2023-11-15T14:41:03.072Z,78.76
2023-11-15T14:43:30.010Z,78.65
2023-11-15T14:45:59.396Z,78.87
2023-11-15T14:48:26.429Z,78.79
2023-11-15T14:50:53.372Z,78.80
2023-11-15T14:53:31.432Z,79.11
2023-11-15T14:55:59.756Z,79.38
2023-11-15T14:58:27.519Z,79.09
2023-11-15T15:00:55.025Z,79.04
2023-11-15T15:03:23.939Z,78.89
2023-11-15T15:05:52.785Z,78.79
2023-11-15T15:08:23.029Z,79.30
2023-11-15T15:10:54.577Z,78.92
2023-11-15T15:13:22.369Z,79.16
2023-11-15T15:15:49.372Z,79.00
2023-11-15T15:18:19.662Z,79.38
2023-11-15T15:20:52.341Z,79.06
2023-11-15T15:23:19.604Z,79.31
2023-11-15T15:25:47.824Z,79.19
2023-11-15T15:28:15.872Z,79.47
2023-11-15T15:30:44.221Z,79.40
2023-11-15T15:33:14.090Z,79.66
2023-11-15T15:35:41.547Z,79.55
2023-11-15T15:38:10.488Z,79.62
2023-11-15T15:40:39.945Z,79.25
2023-11-15T15:43:07.218Z,79.22
2023-11-15T15:45:36.658Z,79.83
2023-11-15T15:48:05.805Z,79.50
2023-11-15T15:50:33.111Z,79.63
2023-11-15T15:53:00.136Z,79.60
2023-11-15T15:55:27.495Z,79.89
2023-11-15T15:57:57.532Z,79.36
2023-11-15T16:00:25.470Z,79.71
2023-11-15T16:02:54.294Z,79.80
2023-11-15T16:05:21.636Z,79.89
2023-11-15T16:07:48.633Z,79.78
2023-11-15T16:10:15.569Z,79.81
2023-11-15T16:12:42.458Z,79.90
2023-11-15T16:15:17.333Z,79.56
2023-11-15T16:17:44.626Z,79.63
2023-11-15T16:20:13.122Z,79.97
2023-11-15T16:22:40.107Z,80.18
2023-11-15T16:25:07.612Z,79.86
2023-11-15T16:27:37.519Z,80.05
2023-11-15T16:30:06.701Z,80.30
2023-11-15T16:32:36.412Z,79.93
2023-11-15T16:35:05.346Z,80.25
2023-11-15T16:37:36.157Z,80.20
2023-11-15T16:40:09.314Z,80.08
2023-11-15T16:42:36.658Z,80.16
2023-11-15T16:45:08.011Z,80.37
2023-11-15T16:47:37.192Z,80.36
2023-11-15T16:50:05.269Z,80.09
2023-11-15T16:52:34.442Z,80.60
2023-11-15T16:55:02.697Z,80.58
2023-11-15T16:57:29.677Z,80.78
2023-11-15T16:59:58.569Z,80.64
2023-11-15T17:02:25.799Z,80.33
2023-11-15T17:04:53.172Z,80.27
2023-11-15T17:07:22.453Z,80.30
2023-11-15T17:09:52.548Z,80.32
2023-11-15T17:12:20.424Z,80.82
2023-11-15T17:14:47.610Z,80.88
2023-11-15T17:17:16.947Z,80.46
2023-11-15T17:19:45.735Z,80.84
2023-11-15T17:22:14.627Z,80.81
2023-11-15T17:24:41.643Z,80.59
2023-11-15T17:27:09.786Z,80.53
2023-11-15T17:29:37.195Z,80.31
2023-11-15T17:32:04.742Z,80.62
2023-11-15T17:34:32.657Z,80.86
2023-11-15T17:36:59.648Z,80.81
2023-11-15T17:39:26.787Z,80.60
2023-11-15T17:51:06.921Z,80.66
2023-11-15T17:53:34.043Z,80.61
2023-11-15T17:56:01.642Z,80.62
2023-11-15T17:58:28.461Z,80.57
2023-11-15T18:00:55.806Z,80.57
2023-11-15T18:03:23.064Z,80.64
2023-11-15T18:05:50.069Z,80.73
2023-11-15T18:08:20.021Z,80.58
2023-11-15T18:10:47.067Z,80.69
2023-11-15T18:13:14.008Z,80.44
2023-11-15T18:15:40.950Z,80.54
2023-11-15T18:18:08.033Z,80.75
2023-11-15T18:20:35.095Z,80.45
2023-11-15T18:23:02.521Z,80.66
2023-11-15T18:25:29.397Z,80.79
2023-11-15T18:27:56.431Z,80.69
2023-11-15T18:30:24.607Z,80.94
2023-11-15T18:32:56.277Z,80.99
2023-11-15T18:35:23.410Z,80.87
2023-11-15T18:37:58.424Z,80.70
2023-11-15T18:40:26.564Z,80.65
2023-11-15T18:42:56.155Z,80.88
2023-11-15T18:45:28.486Z,80.95
2023-11-15T18:48:01.142Z,80.89
2023-11-15T18:50:33.147Z,80.77
2023-11-15T18:53:04.761Z,80.79
2023-11-15T18:55:34.847Z,80.94
2023-11-15T18:58:02.376Z,80.86
2023-11-15T19:00:31.722Z,80.96
2023-11-15T19:03:07.273Z,81.02
2023-11-15T19:05:35.337Z,81.28
2023-11-15T19:08:03.825Z,81.25
2023-11-15T19:10:34.137Z,81.15
2023-11-15T19:13:03.088Z,81.39
2023-11-15T19:15:31.100Z,81.21
2023-11-15T19:17:58.825Z,81.37
2023-11-15T19:20:29.912Z,81.25
2023-11-15T19:22:57.076Z,81.36
2023-11-15T19:25:25.868Z,81.54
2023-11-15T19:27:53.190Z,81.68
2023-11-15T19:30:21.151Z,81.48
2023-11-15T19:32:51.517Z,81.66
2023-11-15T19:35:20.816Z,81.69
2023-11-15T19:37:48.276Z,81.63
2023-11-15T19:40:16.402Z,81.51
2023-11-15T19:42:43.928Z,81.71
2023-11-15T19:45:12.674Z,81.80
2023-11-15T19:47:40.944Z,81.71
2023-11-15T19:50:09.077Z,81.76
2023-11-15T19:52:35.963Z,81.66
2023-11-15T19:55:12.692Z,81.82
2023-11-15T19:57:40.455Z,81.83
2023-11-15T20:00:14.164Z,81.88
2023-11-15T20:02:46.762Z,82.04
2023-11-15T20:05:16.415Z,82.20
2023-11-15T20:07:44.516Z,82.25
2023-11-15T20:10:12.171Z,82.31
2023-11-15T20:12:40.843Z,82.09
2023-11-15T20:15:11.362Z,82.08
2023-11-15T20:17:39.385Z,82.13
2023-11-15T20:20:08.828Z,82.27
2023-11-15T20:22:44.821Z,82.42
2023-11-15T20:25:16.914Z,82.54
2023-11-15T20:27:45.423Z,82.47
2023-11-15T20:30:12.853Z,82.57
2023-11-15T20:32:40.746Z,82.37
2023-11-15T20:35:09.039Z,82.55
2023-11-15T20:37:37.207Z,82.50
2023-11-15T20:40:07.567Z,82.54
2023-11-15T20:42:36.374Z,82.45
2023-11-15T20:45:04.108Z,82.39
2023-11-15T20:47:33.714Z,82.89
2023-11-15T20:50:05.428Z,82.78
2023-11-15T20:52:34.053Z,82.92
2023-11-15T20:55:03.840Z,82.92
2023-11-15T20:57:31.247Z,82.77
2023-11-15T21:00:00.061Z,82.92
2023-11-15T21:02:27.312Z,83.04
2023-11-15T21:04:56.912Z,82.85
2023-11-15T21:07:24.416Z,82.86
2023-11-15T21:09:53.904Z,83.20
2023-11-15T21:12:22.155Z,83.05
2023-11-15T21:14:54.422Z,83.01
2023-11-15T21:17:21.418Z,83.05
2023-11-15T21:19:48.636Z,83.27
2023-11-15T21:22:15.588Z,83.08
2023-11-15T21:24:43.536Z,83.43
2023-11-15T21:27:12.854Z,83.30
2023-11-15T21:29:39.722Z,83.27
2023-11-15T21:32:11.212Z,83.56
2023-11-15T21:34:38.347Z,83.44
2023-11-15T21:37:13.423Z,83.79
2023-11-15T21:39:45.238Z,83.40
2023-11-15T21:42:55.386Z,83.81
2023-11-15T21:45:22.520Z,83.46
2023-11-15T21:47:50.288Z,83.40
2023-11-15T21:50:22.616Z,83.74
2023-11-15T21:52:49.860Z,83.79
2023-11-15T21:55:16.820Z,83.53
2023-11-15T21:57:44.249Z,83.62
2023-11-15T22:00:15.986Z,83.29
2023-11-15T22:02:44.150Z,83.78
2023-11-15T22:05:11.659Z,83.85
2023-11-15T22:07:39.267Z,84.10
2023-11-15T22:10:10.494Z,83.91
2023-11-15T22:12:37.867Z,84.01
2023-11-15T22:15:05.104Z,84.13
2023-11-15T22:17:32.216Z,83.57
2023-11-15T22:19:59.602Z,84.29
2023-11-15T22:22:26.530Z,84.02
2023-11-15T22:24:53.724Z,84.14
2023-11-15T22:27:20.847Z,84.16
2023-11-15T22:29:47.846Z,84.54
2023-11-15T22:32:14.856Z,84.42
2023-11-15T22:34:41.938Z,84.43
2023-11-15T22:37:10.010Z,84.30
2023-11-15T22:39:37.118Z,84.45
2023-11-15T22:42:04.542Z,84.65
2023-11-15T22:44:31.633Z,84.30
2023-11-15T22:46:58.607Z,84.49
2023-11-15T22:49:25.553Z,84.29
2023-11-15T22:51:52.605Z,84.53
2023-11-15T22:54:19.676Z,84.85
2023-11-15T22:56:47.104Z,84.43
2023-11-15T22:59:14.235Z,84.52
2023-11-15T23:01:41.222Z,84.90
2023-11-15T23:04:09.267Z,84.86
2023-11-15T23:06:36.428Z,84.68
2023-11-15T23:09:03.459Z,84.55
2023-11-15T23:11:31.685Z,84.76
2023-11-15T23:13:58.537Z,84.50
2023-11-15T23:16:25.873Z,84.71
2023-11-15T23:18:54.701Z,84.72
2023-11-15T23:21:23.169Z,84.77
2023-11-15T23:23:50.184Z,84.60
2023-11-15T23:26:17.222Z,84.55
2023-11-15T23:28:44.354Z,84.60
2023-11-15T23:31:12.404Z,84.74
2023-11-15T23:33:39.374Z,84.80
2023-11-15T23:36:07.374Z,84.90
2023-11-15T23:38:34.301Z,84.88
2023-11-15T23:41:02.026Z,84.75
2023-11-15T23:43:29.824Z,84.88
2023-11-15T23:45:58.630Z,84.92
2023-11-15T23:48:25.793Z,84.68
2023-11-15T23:50:54.567Z,85.11
2023-11-15T23:53:22.818Z,84.98
2023-11-15T23:55:51.102Z,84.91
2023-11-15T23:58:17.961Z,84.81
